sensor_id;sensor_type;location;lat;lon;timestamp;temperature;humidity
8914;DHT22;4492;48.736;9.092;2023-08-20T00:00:07;20.00;99.90
8914;DHT22;4492;48.736;9.092;2023-08-20T00:02:35;20.00;99.90
8914;DHT22;4492;48.736;9.092;2023-08-20T00:05:02;20.00;99.90
8914;DHT22;4492;48.736;9.092;2023-08-20T00:07:30;20.00;99.90
8914;DHT22;4492;48.736;9.092;2023-08-20T00:09:56;20.00;99.90
8914;DHT22;4492;48.736;9.092;2023-08-20T00:12:21;20.00;99.90
8914;DHT22;4492;48.736;9.092;2023-08-20T00:14:56;20.00;99.90
8914;DHT22;4492;48.736;9.092;2023-08-20T00:17:24;20.10;99.90
8914;DHT22;4492;48.736;9.092;2023-08-20T00:19:53;20.20;99.90
8914;DHT22;4492;48.736;9.092;2023-08-20T00:22:20;20.20;99.90
8914;DHT22;4492;48.736;9.092;2023-08-20T00:24:46;20.30;99.90
8914;DHT22;4492;48.736;9.092;2023-08-20T00:27:12;20.30;99.90
8914;DHT22;4492;48.736;9.092;2023-08-20T00:29:38;20.20;99.90
8914;DHT22;4492;48.736;9.092;2023-08-20T00:32:03;20.20;99.90
8914;DHT22;4492;48.736;9.092;2023-08-20T00:34:29;20.10;99.90
8914;DHT22;4492;48.736;9.092;2023-08-20T00:36:54;20.10;99.90
8914;DHT22;4492;48.736;9.092;2023-08-20T00:39:20;20.00;99.90
8914;DHT22;4492;48.736;9.092;2023-08-20T00:41:46;19.90;99.90
8914;DHT22;4492;48.736;9.092;2023-08-20T00:44:11;19.90;99.90
8914;DHT22;4492;48.736;9.092;2023-08-20T00:46:37;19.90;99.90
8914;DHT22;4492;48.736;9.092;2023-08-20T00:49:02;19.90;99.90
8914;DHT22;4492;48.736;9.092;2023-08-20T00:51:28;20.00;99.90
8914;DHT22;4492;48.736;9.092;2023-08-20T00:53:54;20.00;99.90
8914;DHT22;4492;48.736;9.092;2023-08-20T00:56:20;19.90;99.90
8914;DHT22;4492;48.736;9.092;2023-08-20T00:58:46;19.90;99.90
8914;DHT22;4492;48.736;9.092;2023-08-20T01:01:12;19.80;99.90
8914;DHT22;4492;48.736;9.092;2023-08-20T01:03:37;19.80;99.90
8914;DHT22;4492;48.736;9.092;2023-08-20T01:09:01;19.80;99.90
8914;DHT22;4492;48.736;9.092;2023-08-20T01:11:35;19.90;99.90
8914;DHT22;4492;48.736;9.092;2023-08-20T01:14:03;19.90;99.90
8914;DHT22;4492;48.736;9.092;2023-08-20T01:16:39;19.90;99.90
8914;DHT22;4492;48.736;9.092;2023-08-20T01:19:05;20.00;99.90
8914;DHT22;4492;48.736;9.092;2023-08-20T01:21:39;20.00;99.90
8914;DHT22;4492;48.736;9.092;2023-08-20T01:29:07;19.90;99.90
8914;DHT22;4492;48.736;9.092;2023-08-20T01:31:33;19.90;99.90
8914;DHT22;4492;48.736;9.092;2023-08-20T01:34:01;19.80;99.90
8914;DHT22;4492;48.736;9.092;2023-08-20T01:36:26;19.80;99.90
8914;DHT22;4492;48.736;9.092;2023-08-20T01:38:52;19.70;99.90
8914;DHT22;4492;48.736;9.092;2023-08-20T01:41:17;19.80;99.90
8914;DHT22;4492;48.736;9.092;2023-08-20T01:43:43;19.90;99.90
8914;DHT22;4492;48.736;9.092;2023-08-20T01:46:08;20.00;99.90
8914;DHT22;4492;48.736;9.092;2023-08-20T01:48:35;20.00;99.90
8914;DHT22;4492;48.736;9.092;2023-08-20T01:51:00;19.90;99.90
8914;DHT22;4492;48.736;9.092;2023-08-20T01:53:26;20.00;99.90
8914;DHT22;4492;48.736;9.092;2023-08-20T01:55:51;19.90;99.90
8914;DHT22;4492;48.736;9.092;2023-08-20T01:58:17;19.80;99.90
8914;DHT22;4492;48.736;9.092;2023-08-20T02:00:42;19.80;99.90
8914;DHT22;4492;48.736;9.092;2023-08-20T02:03:10;19.60;99.90
8914;DHT22;4492;48.736;9.092;2023-08-20T02:05:35;19.60;99.90
8914;DHT22;4492;48.736;9.092;2023-08-20T02:08:01;19.50;99.90
8914;DHT22;4492;48.736;9.092;2023-08-20T02:10:27;19.40;99.90
8914;DHT22;4492;48.736;9.092;2023-08-20T02:12:53;19.40;99.90
8914;DHT22;4492;48.736;9.092;2023-08-20T02:15:18;19.30;99.90
8914;DHT22;4492;48.736;9.092;2023-08-20T02:17:43;19.20;99.90
8914;DHT22;4492;48.736;9.092;2023-08-20T02:20:09;19.20;99.90
8914;DHT22;4492;48.736;9.092;2023-08-20T02:22:35;19.10;99.90
8914;DHT22;4492;48.736;9.092;2023-08-20T02:25:01;19.10;99.90
8914;DHT22;4492;48.736;9.092;2023-08-20T02:27:27;19.10;99.90
8914;DHT22;4492;48.736;9.092;2023-08-20T02:29:52;19.10;99.90
8914;DHT22;4492;48.736;9.092;2023-08-20T02:32:18;19.10;99.90
8914;DHT22;4492;48.736;9.092;2023-08-20T02:34:44;19.10;99.90
8914;DHT22;4492;48.736;9.092;2023-08-20T02:37:09;19.20;99.90
8914;DHT22;4492;48.736;9.092;2023-08-20T02:39:35;19.30;99.90
8914;DHT22;4492;48.736;9.092;2023-08-20T02:42:00;19.30;99.90
8914;DHT22;4492;48.736;9.092;2023-08-20T02:44:26;19.20;99.90
8914;DHT22;4492;48.736;9.092;2023-08-20T02:46:51;19.10;99.90
8914;DHT22;4492;48.736;9.092;2023-08-20T02:49:17;19.10;99.90
8914;DHT22;4492;48.736;9.092;2023-08-20T02:51:43;19.10;99.90
8914;DHT22;4492;48.736;9.092;2023-08-20T02:54:09;19.00;99.90
8914;DHT22;4492;48.736;9.092;2023-08-20T02:56:34;18.90;99.90
8914;DHT22;4492;48.736;9.092;2023-08-20T02:59:00;18.80;99.90
8914;DHT22;4492;48.736;9.092;2023-08-20T03:01:26;18.80;99.90
8914;DHT22;4492;48.736;9.092;2023-08-20T03:03:52;18.70;99.90
8914;DHT22;4492;48.736;9.092;2023-08-20T03:06:17;18.60;99.90
8914;DHT22;4492;48.736;9.092;2023-08-20T03:08:43;18.60;99.90
8914;DHT22;4492;48.736;9.092;2023-08-20T03:11:09;18.50;99.90
8914;DHT22;4492;48.736;9.092;2023-08-20T03:13:34;18.50;99.90
8914;DHT22;4492;48.736;9.092;2023-08-20T03:16:00;18.50;99.90
8914;DHT22;4492;48.736;9.092;2023-08-20T03:18:26;18.50;99.90
8914;DHT22;4492;48.736;9.092;2023-08-20T03:20:51;18.50;99.90
8914;DHT22;4492;48.736;9.092;2023-08-20T03:23:17;18.50;99.90
8914;DHT22;4492;48.736;9.092;2023-08-20T03:25:42;18.50;99.90
8914;DHT22;4492;48.736;9.092;2023-08-20T03:28:08;18.50;99.90
8914;DHT22;4492;48.736;9.092;2023-08-20T03:30:33;18.50;99.90
8914;DHT22;4492;48.736;9.092;2023-08-20T03:32:59;18.50;99.90
8914;DHT22;4492;48.736;9.092;2023-08-20T03:35:25;18.50;99.90
8914;DHT22;4492;48.736;9.092;2023-08-20T03:37:50;18.50;99.90
8914;DHT22;4492;48.736;9.092;2023-08-20T03:40:16;18.50;99.90
8914;DHT22;4492;48.736;9.092;2023-08-20T03:42:43;18.50;99.90
8914;DHT22;4492;48.736;9.092;2023-08-20T03:45:09;18.50;99.90
8914;DHT22;4492;48.736;9.092;2023-08-20T03:47:34;18.40;99.90
8914;DHT22;4492;48.736;9.092;2023-08-20T03:50:02;18.40;99.90
8914;DHT22;4492;48.736;9.092;2023-08-20T03:52:27;18.30;99.90
8914;DHT22;4492;48.736;9.092;2023-08-20T03:54:53;18.30;99.90
8914;DHT22;4492;48.736;9.092;2023-08-20T03:57:18;18.20;99.90
8914;DHT22;4492;48.736;9.092;2023-08-20T03:59:44;18.30;99.90
8914;DHT22;4492;48.736;9.092;2023-08-20T04:02:16;18.20;99.90
8914;DHT22;4492;48.736;9.092;2023-08-20T04:04:42;18.20;99.90
8914;DHT22;4492;48.736;9.092;2023-08-20T04:07:07;18.20;99.90
8914;DHT22;4492;48.736;9.092;2023-08-20T04:09:33;18.20;99.90
8914;DHT22;4492;48.736;9.092;2023-08-20T04:11:59;18.30;99.90
8914;DHT22;4492;48.736;9.092;2023-08-20T04:14:25;18.30;99.90
8914;DHT22;4492;48.736;9.092;2023-08-20T04:16:50;18.30;99.90
8914;DHT22;4492;48.736;9.092;2023-08-20T04:19:16;18.30;99.90
8914;DHT22;4492;48.736;9.092;2023-08-20T04:21:41;18.30;99.90
8914;DHT22;4492;48.736;9.092;2023-08-20T04:24:07;18.20;99.90
8914;DHT22;4492;48.736;9.092;2023-08-20T04:26:33;18.20;99.90
8914;DHT22;4492;48.736;9.092;2023-08-20T04:28:59;18.10;99.90
8914;DHT22;4492;48.736;9.092;2023-08-20T04:31:25;18.10;99.90
8914;DHT22;4492;48.736;9.092;2023-08-20T04:33:50;18.00;99.90
8914;DHT22;4492;48.736;9.092;2023-08-20T04:36:16;18.00;99.90
8914;DHT22;4492;48.736;9.092;2023-08-20T04:38:41;18.00;99.90
8914;DHT22;4492;48.736;9.092;2023-08-20T04:41:07;17.90;99.90
8914;DHT22;4492;48.736;9.092;2023-08-20T04:43:32;18.00;99.90
8914;DHT22;4492;48.736;9.092;2023-08-20T04:45:58;18.00;99.90
8914;DHT22;4492;48.736;9.092;2023-08-20T04:48:23;18.00;99.90
8914;DHT22;4492;48.736;9.092;2023-08-20T04:50:49;18.10;99.90
8914;DHT22;4492;48.736;9.092;2023-08-20T04:53:14;18.10;99.90
8914;DHT22;4492;48.736;9.092;2023-08-20T04:55:40;18.10;99.90
8914;DHT22;4492;48.736;9.092;2023-08-20T04:58:05;18.10;99.90
8914;DHT22;4492;48.736;9.092;2023-08-20T05:00:31;18.10;99.90
8914;DHT22;4492;48.736;9.092;2023-08-20T05:02:57;18.10;99.90
8914;DHT22;4492;48.736;9.092;2023-08-20T05:05:23;18.10;99.90
8914;DHT22;4492;48.736;9.092;2023-08-20T05:07:50;18.20;99.90
8914;DHT22;4492;48.736;9.092;2023-08-20T05:10:15;18.20;99.90
8914;DHT22;4492;48.736;9.092;2023-08-20T05:12:41;18.20;99.90
8914;DHT22;4492;48.736;9.092;2023-08-20T05:15:07;18.20;99.90
8914;DHT22;4492;48.736;9.092;2023-08-20T05:17:32;18.30;99.90
8914;DHT22;4492;48.736;9.092;2023-08-20T05:19:58;18.30;99.90
8914;DHT22;4492;48.736;9.092;2023-08-20T05:22:23;18.30;99.90
8914;DHT22;4492;48.736;9.092;2023-08-20T05:24:49;18.40;99.90
8914;DHT22;4492;48.736;9.092;2023-08-20T05:27:16;18.60;99.90
8914;DHT22;4492;48.736;9.092;2023-08-20T05:29:45;18.60;99.90
8914;DHT22;4492;48.736;9.092;2023-08-20T05:32:10;18.70;99.90
8914;DHT22;4492;48.736;9.092;2023-08-20T05:34:36;18.90;99.90
8914;DHT22;4492;48.736;9.092;2023-08-20T05:37:02;19.00;99.90
8914;DHT22;4492;48.736;9.092;2023-08-20T05:39:30;19.10;99.90
8914;DHT22;4492;48.736;9.092;2023-08-20T05:41:56;19.30;99.90
8914;DHT22;4492;48.736;9.092;2023-08-20T05:44:22;19.40;99.90
8914;DHT22;4492;48.736;9.092;2023-08-20T05:46:48;19.40;99.90
8914;DHT22;4492;48.736;9.092;2023-08-20T05:49:14;19.50;99.90
8914;DHT22;4492;48.736;9.092;2023-08-20T05:51:42;19.60;99.90
8914;DHT22;4492;48.736;9.092;2023-08-20T05:54:07;19.70;99.90
8914;DHT22;4492;48.736;9.092;2023-08-20T05:56:33;19.80;99.90
8914;DHT22;4492;48.736;9.092;2023-08-20T05:58:58;20.10;99.90
8914;DHT22;4492;48.736;9.092;2023-08-20T06:01:24;20.30;99.90
8914;DHT22;4492;48.736;9.092;2023-08-20T06:03:49;20.50;99.90
8914;DHT22;4492;48.736;9.092;2023-08-20T06:06:15;20.90;99.90
8914;DHT22;4492;48.736;9.092;2023-08-20T06:08:40;21.20;99.90
8914;DHT22;4492;48.736;9.092;2023-08-20T06:11:06;21.50;99.90
8914;DHT22;4492;48.736;9.092;2023-08-20T06:13:31;21.80;99.90
8914;DHT22;4492;48.736;9.092;2023-08-20T06:15:57;22.00;99.90
8914;DHT22;4492;48.736;9.092;2023-08-20T06:18:22;22.20;99.90
8914;DHT22;4492;48.736;9.092;2023-08-20T06:20:48;22.50;99.90
8914;DHT22;4492;48.736;9.092;2023-08-20T06:23:13;22.70;99.90
8914;DHT22;4492;48.736;9.092;2023-08-20T06:25:39;22.70;99.90
8914;DHT22;4492;48.736;9.092;2023-08-20T06:28:04;22.80;99.90
8914;DHT22;4492;48.736;9.092;2023-08-20T06:30:30;22.70;99.90
8914;DHT22;4492;48.736;9.092;2023-08-20T06:32:55;22.70;99.90
8914;DHT22;4492;48.736;9.092;2023-08-20T06:35:21;22.70;99.90
8914;DHT22;4492;48.736;9.092;2023-08-20T06:37:46;22.70;99.90
8914;DHT22;4492;48.736;9.092;2023-08-20T06:40:12;22.70;99.90
8914;DHT22;4492;48.736;9.092;2023-08-20T06:42:39;22.90;99.90
8914;DHT22;4492;48.736;9.092;2023-08-20T06:45:05;23.00;99.90
8914;DHT22;4492;48.736;9.092;2023-08-20T06:47:31;23.30;99.90
8914;DHT22;4492;48.736;9.092;2023-08-20T06:49:56;23.50;99.90
8914;DHT22;4492;48.736;9.092;2023-08-20T06:52:22;23.70;99.90
8914;DHT22;4492;48.736;9.092;2023-08-20T06:54:47;23.90;99.90
8914;DHT22;4492;48.736;9.092;2023-08-20T06:57:13;24.10;99.90
8914;DHT22;4492;48.736;9.092;2023-08-20T06:59:38;24.20;99.90
8914;DHT22;4492;48.736;9.092;2023-08-20T07:02:04;24.40;99.90
8914;DHT22;4492;48.736;9.092;2023-08-20T07:04:29;24.60;99.90
8914;DHT22;4492;48.736;9.092;2023-08-20T07:06:55;24.70;99.90
8914;DHT22;4492;48.736;9.092;2023-08-20T07:09:21;24.80;99.90
8914;DHT22;4492;48.736;9.092;2023-08-20T07:11:46;24.80;99.90
8914;DHT22;4492;48.736;9.092;2023-08-20T07:14:12;24.90;99.90
8914;DHT22;4492;48.736;9.092;2023-08-20T07:16:37;24.80;99.90
8914;DHT22;4492;48.736;9.092;2023-08-20T07:19:03;24.90;99.90
8914;DHT22;4492;48.736;9.092;2023-08-20T07:21:28;25.00;99.90
8914;DHT22;4492;48.736;9.092;2023-08-20T07:23:54;25.10;99.90
8914;DHT22;4492;48.736;9.092;2023-08-20T07:26:20;25.20;99.90
8914;DHT22;4492;48.736;9.092;2023-08-20T07:28:45;25.20;99.90
8914;DHT22;4492;48.736;9.092;2023-08-20T07:31:27;25.40;99.90
8914;DHT22;4492;48.736;9.092;2023-08-20T07:33:54;25.50;99.90
8914;DHT22;4492;48.736;9.092;2023-08-20T07:36:21;25.60;99.90
8914;DHT22;4492;48.736;9.092;2023-08-20T07:38:50;25.80;99.90
8914;DHT22;4492;48.736;9.092;2023-08-20T07:41:16;25.90;99.90
8914;DHT22;4492;48.736;9.092;2023-08-20T07:43:41;25.90;99.90
8914;DHT22;4492;48.736;9.092;2023-08-20T07:46:08;25.90;99.90
8914;DHT22;4492;48.736;9.092;2023-08-20T07:48:34;25.90;99.90
8914;DHT22;4492;48.736;9.092;2023-08-20T07:51:01;25.90;99.90
8914;DHT22;4492;48.736;9.092;2023-08-20T07:53:27;25.90;99.90
8914;DHT22;4492;48.736;9.092;2023-08-20T07:55:52;25.90;99.90
8914;DHT22;4492;48.736;9.092;2023-08-20T07:58:18;25.90;99.90
8914;DHT22;4492;48.736;9.092;2023-08-20T08:00:43;25.90;99.90
8914;DHT22;4492;48.736;9.092;2023-08-20T08:03:09;26.00;99.90
8914;DHT22;4492;48.736;9.092;2023-08-20T08:05:35;26.10;99.90
8914;DHT22;4492;48.736;9.092;2023-08-20T08:08:01;26.10;99.90
8914;DHT22;4492;48.736;9.092;2023-08-20T08:10:28;26.20;99.90
8914;DHT22;4492;48.736;9.092;2023-08-20T08:12:53;26.20;99.90
8914;DHT22;4492;48.736;9.092;2023-08-20T08:15:19;26.20;99.90
8914;DHT22;4492;48.736;9.092;2023-08-20T08:17:44;26.30;99.90
8914;DHT22;4492;48.736;9.092;2023-08-20T08:20:10;26.30;99.90
8914;DHT22;4492;48.736;9.092;2023-08-20T08:22:35;26.30;99.90
8914;DHT22;4492;48.736;9.092;2023-08-20T08:25:02;26.30;99.90
8914;DHT22;4492;48.736;9.092;2023-08-20T08:27:28;26.20;99.90
8914;DHT22;4492;48.736;9.092;2023-08-20T08:29:53;26.20;99.90
8914;DHT22;4492;48.736;9.092;2023-08-20T08:32:19;26.30;99.90
8914;DHT22;4492;48.736;9.092;2023-08-20T08:34:44;26.30;99.90
8914;DHT22;4492;48.736;9.092;2023-08-20T08:37:10;26.40;99.90
8914;DHT22;4492;48.736;9.092;2023-08-20T08:39:36;26.50;99.90
8914;DHT22;4492;48.736;9.092;2023-08-20T08:42:03;26.50;99.90
8914;DHT22;4492;48.736;9.092;2023-08-20T08:44:31;26.60;99.90
8914;DHT22;4492;48.736;9.092;2023-08-20T08:46:58;26.70;99.90
8914;DHT22;4492;48.736;9.092;2023-08-20T08:49:24;26.70;99.90
8914;DHT22;4492;48.736;9.092;2023-08-20T08:51:50;26.80;99.90
8914;DHT22;4492;48.736;9.092;2023-08-20T08:54:16;26.90;99.90
8914;DHT22;4492;48.736;9.092;2023-08-20T08:56:42;27.00;99.90
8914;DHT22;4492;48.736;9.092;2023-08-20T08:59:08;26.90;99.90
8914;DHT22;4492;48.736;9.092;2023-08-20T09:01:38;26.90;99.90
8914;DHT22;4492;48.736;9.092;2023-08-20T09:04:04;26.90;99.90
8914;DHT22;4492;48.736;9.092;2023-08-20T09:06:50;26.90;99.90
8914;DHT22;4492;48.736;9.092;2023-08-20T09:09:20;27.00;99.90
8914;DHT22;4492;48.736;9.092;2023-08-20T09:11:47;27.00;99.90
8914;DHT22;4492;48.736;9.092;2023-08-20T09:14:29;27.10;99.90
8914;DHT22;4492;48.736;9.092;2023-08-20T09:16:59;27.10;99.90
8914;DHT22;4492;48.736;9.092;2023-08-20T09:19:28;27.30;99.90
8914;DHT22;4492;48.736;9.092;2023-08-20T09:21:54;27.30;99.90
8914;DHT22;4492;48.736;9.092;2023-08-20T09:24:41;27.30;99.90
8914;DHT22;4492;48.736;9.092;2023-08-20T09:27:11;27.40;99.90
8914;DHT22;4492;48.736;9.092;2023-08-20T09:29:44;27.40;99.90
8914;DHT22;4492;48.736;9.092;2023-08-20T09:32:14;27.40;99.90
8914;DHT22;4492;48.736;9.092;2023-08-20T09:34:40;27.50;99.90
8914;DHT22;4492;48.736;9.092;2023-08-20T09:37:24;27.80;99.90
8914;DHT22;4492;48.736;9.092;2023-08-20T09:39:50;27.90;99.90
8914;DHT22;4492;48.736;9.092;2023-08-20T09:42:17;28.00;99.90
8914;DHT22;4492;48.736;9.092;2023-08-20T09:44:44;28.10;99.90
8914;DHT22;4492;48.736;9.092;2023-08-20T09:47:11;28.10;99.90
8914;DHT22;4492;48.736;9.092;2023-08-20T09:49:42;28.20;99.90
8914;DHT22;4492;48.736;9.092;2023-08-20T09:52:10;28.30;99.90
8914;DHT22;4492;48.736;9.092;2023-08-20T09:55:03;28.20;99.90
8914;DHT22;4492;48.736;9.092;2023-08-20T09:57:36;28.30;99.90
8914;DHT22;4492;48.736;9.092;2023-08-20T10:00:03;28.40;99.90
8914;DHT22;4492;48.736;9.092;2023-08-20T10:02:31;28.30;99.90
8914;DHT22;4492;48.736;9.092;2023-08-20T10:04:58;28.40;99.90
8914;DHT22;4492;48.736;9.092;2023-08-20T10:07:28;28.50;99.90
8914;DHT22;4492;48.736;9.092;2023-08-20T10:09:56;28.40;99.80
8914;DHT22;4492;48.736;9.092;2023-08-20T10:12:26;28.50;99.90
8914;DHT22;4492;48.736;9.092;2023-08-20T10:14:52;28.50;99.30
8914;DHT22;4492;48.736;9.092;2023-08-20T10:17:18;28.70;99.30
8914;DHT22;4492;48.736;9.092;2023-08-20T10:19:43;28.70;99.60
8914;DHT22;4492;48.736;9.092;2023-08-20T10:22:09;28.70;98.10
8914;DHT22;4492;48.736;9.092;2023-08-20T10:25:01;28.70;98.70
8914;DHT22;4492;48.736;9.092;2023-08-20T10:27:35;28.80;99.80
8914;DHT22;4492;48.736;9.092;2023-08-20T10:30:01;28.80;99.00
8914;DHT22;4492;48.736;9.092;2023-08-20T10:32:44;28.90;98.30
8914;DHT22;4492;48.736;9.092;2023-08-20T10:35:11;29.00;98.10
8914;DHT22;4492;48.736;9.092;2023-08-20T10:37:37;29.20;98.20
8914;DHT22;4492;48.736;9.092;2023-08-20T10:40:05;29.20;97.90
8914;DHT22;4492;48.736;9.092;2023-08-20T10:42:31;29.20;97.30
8914;DHT22;4492;48.736;9.092;2023-08-20T10:47:24;29.30;97.60
8914;DHT22;4492;48.736;9.092;2023-08-20T10:49:53;29.30;97.00
8914;DHT22;4492;48.736;9.092;2023-08-20T10:52:22;29.40;96.20
8914;DHT22;4492;48.736;9.092;2023-08-20T10:54:50;29.40;95.70
8914;DHT22;4492;48.736;9.092;2023-08-20T10:57:16;29.40;96.00
8914;DHT22;4492;48.736;9.092;2023-08-20T10:59:42;29.30;95.70
8914;DHT22;4492;48.736;9.092;2023-08-20T11:02:13;29.30;95.90
8914;DHT22;4492;48.736;9.092;2023-08-20T11:04:40;29.50;95.60
8914;DHT22;4492;48.736;9.092;2023-08-20T11:07:06;29.60;96.00
8914;DHT22;4492;48.736;9.092;2023-08-20T11:09:31;29.50;96.20
8914;DHT22;4492;48.736;9.092;2023-08-20T11:11:57;29.50;96.00
8914;DHT22;4492;48.736;9.092;2023-08-20T11:14:24;29.60;95.50
8914;DHT22;4492;48.736;9.092;2023-08-20T11:16:50;29.70;95.50
8914;DHT22;4492;48.736;9.092;2023-08-20T11:19:23;29.80;95.30
8914;DHT22;4492;48.736;9.092;2023-08-20T11:21:49;29.70;95.20
8914;DHT22;4492;48.736;9.092;2023-08-20T11:24:16;29.60;95.30
8914;DHT22;4492;48.736;9.092;2023-08-20T11:26:43;29.60;95.70
8914;DHT22;4492;48.736;9.092;2023-08-20T11:29:10;29.70;95.70
8914;DHT22;4492;48.736;9.092;2023-08-20T11:31:37;29.90;95.50
8914;DHT22;4492;48.736;9.092;2023-08-20T11:34:04;29.90;95.30
8914;DHT22;4492;48.736;9.092;2023-08-20T11:36:30;29.90;95.20
8914;DHT22;4492;48.736;9.092;2023-08-20T11:38:56;30.00;95.30
8914;DHT22;4492;48.736;9.092;2023-08-20T11:41:23;30.10;94.50
8914;DHT22;4492;48.736;9.092;2023-08-20T11:43:50;30.00;94.60
8914;DHT22;4492;48.736;9.092;2023-08-20T11:46:17;30.00;94.80
8914;DHT22;4492;48.736;9.092;2023-08-20T11:51:28;30.00;94.60
8914;DHT22;4492;48.736;9.092;2023-08-20T11:53:55;30.10;94.20
8914;DHT22;4492;48.736;9.092;2023-08-20T11:56:20;30.20;94.00
8914;DHT22;4492;48.736;9.092;2023-08-20T11:58:50;30.50;93.60
8914;DHT22;4492;48.736;9.092;2023-08-20T12:01:20;30.50;93.30
8914;DHT22;4492;48.736;9.092;2023-08-20T12:03:45;30.50;93.50
8914;DHT22;4492;48.736;9.092;2023-08-20T12:06:21;30.50;93.70
8914;DHT22;4492;48.736;9.092;2023-08-20T12:08:48;30.60;93.10
8914;DHT22;4492;48.736;9.092;2023-08-20T12:11:14;30.70;93.30
8914;DHT22;4492;48.736;9.092;2023-08-20T12:13:40;30.90;92.50
8914;DHT22;4492;48.736;9.092;2023-08-20T12:16:06;30.90;92.60
8914;DHT22;4492;48.736;9.092;2023-08-20T12:18:31;31.00;91.40
8914;DHT22;4492;48.736;9.092;2023-08-20T12:20:57;31.20;91.70
8914;DHT22;4492;48.736;9.092;2023-08-20T12:23:22;31.20;91.00
8914;DHT22;4492;48.736;9.092;2023-08-20T12:25:51;31.20;90.60
8914;DHT22;4492;48.736;9.092;2023-08-20T12:28:17;31.10;90.40
8914;DHT22;4492;48.736;9.092;2023-08-20T12:30:43;31.00;91.10
8914;DHT22;4492;48.736;9.092;2023-08-20T12:33:09;30.90;91.40
8914;DHT22;4492;48.736;9.092;2023-08-20T12:35:36;30.90;91.10
8914;DHT22;4492;48.736;9.092;2023-08-20T12:38:03;31.00;90.60
8914;DHT22;4492;48.736;9.092;2023-08-20T12:40:29;31.20;91.10
8914;DHT22;4492;48.736;9.092;2023-08-20T12:42:54;31.10;91.10
8914;DHT22;4492;48.736;9.092;2023-08-20T12:45:20;31.20;91.70
8914;DHT22;4492;48.736;9.092;2023-08-20T12:47:46;31.20;90.40
8914;DHT22;4492;48.736;9.092;2023-08-20T12:50:11;31.30;89.80
8914;DHT22;4492;48.736;9.092;2023-08-20T12:52:38;31.20;89.40
8914;DHT22;4492;48.736;9.092;2023-08-20T12:55:04;31.20;90.00
8914;DHT22;4492;48.736;9.092;2023-08-20T12:57:30;31.10;89.80
8914;DHT22;4492;48.736;9.092;2023-08-20T12:59:56;31.10;89.30
8914;DHT22;4492;48.736;9.092;2023-08-20T13:02:21;31.20;88.80
8914;DHT22;4492;48.736;9.092;2023-08-20T13:04:47;31.20;89.60
8914;DHT22;4492;48.736;9.092;2023-08-20T13:07:13;31.20;89.10
8914;DHT22;4492;48.736;9.092;2023-08-20T13:09:39;31.20;89.00
8914;DHT22;4492;48.736;9.092;2023-08-20T13:12:05;31.20;88.70
8914;DHT22;4492;48.736;9.092;2023-08-20T13:14:34;31.20;88.30
8914;DHT22;4492;48.736;9.092;2023-08-20T13:17:00;31.20;89.00
8914;DHT22;4492;48.736;9.092;2023-08-20T13:19:26;31.20;89.20
8914;DHT22;4492;48.736;9.092;2023-08-20T13:21:51;31.20;89.70
8914;DHT22;4492;48.736;9.092;2023-08-20T13:24:17;31.20;89.00
8914;DHT22;4492;48.736;9.092;2023-08-20T13:26:42;31.20;89.10
8914;DHT22;4492;48.736;9.092;2023-08-20T13:29:08;31.30;89.30
8914;DHT22;4492;48.736;9.092;2023-08-20T13:31:33;31.30;89.40
8914;DHT22;4492;48.736;9.092;2023-08-20T13:34:01;31.20;89.80
8914;DHT22;4492;48.736;9.092;2023-08-20T13:36:26;31.20;89.40
8914;DHT22;4492;48.736;9.092;2023-08-20T13:38:52;31.40;90.10
8914;DHT22;4492;48.736;9.092;2023-08-20T13:41:18;31.50;89.50
8914;DHT22;4492;48.736;9.092;2023-08-20T13:43:43;31.60;88.50
8914;DHT22;4492;48.736;9.092;2023-08-20T13:46:09;31.70;88.40
8914;DHT22;4492;48.736;9.092;2023-08-20T13:48:35;31.80;89.00
8914;DHT22;4492;48.736;9.092;2023-08-20T13:51:00;31.80;87.50
8914;DHT22;4492;48.736;9.092;2023-08-20T13:53:26;31.80;87.40
8914;DHT22;4492;48.736;9.092;2023-08-20T13:55:52;31.70;87.40
8914;DHT22;4492;48.736;9.092;2023-08-20T13:58:17;31.60;88.20
8914;DHT22;4492;48.736;9.092;2023-08-20T14:00:43;31.60;88.60
8914;DHT22;4492;48.736;9.092;2023-08-20T14:03:08;31.60;88.20
8914;DHT22;4492;48.736;9.092;2023-08-20T14:05:34;31.70;87.90
8914;DHT22;4492;48.736;9.092;2023-08-20T14:08:00;31.70;88.50
8914;DHT22;4492;48.736;9.092;2023-08-20T14:10:25;31.80;87.40
8914;DHT22;4492;48.736;9.092;2023-08-20T14:12:51;31.90;87.70
8914;DHT22;4492;48.736;9.092;2023-08-20T14:15:16;32.00;87.20
8914;DHT22;4492;48.736;9.092;2023-08-20T14:17:42;31.70;88.80
8914;DHT22;4492;48.736;9.092;2023-08-20T14:20:08;31.80;87.90
8914;DHT22;4492;48.736;9.092;2023-08-20T14:22:33;31.80;86.60
8914;DHT22;4492;48.736;9.092;2023-08-20T14:24:59;31.50;87.90
8914;DHT22;4492;48.736;9.092;2023-08-20T14:27:25;31.20;87.50
8914;DHT22;4492;48.736;9.092;2023-08-20T14:29:50;31.10;87.90
8914;DHT22;4492;48.736;9.092;2023-08-20T14:32:16;31.00;88.70
8914;DHT22;4492;48.736;9.092;2023-08-20T14:34:41;31.10;89.70
8914;DHT22;4492;48.736;9.092;2023-08-20T14:37:07;31.10;89.90
8914;DHT22;4492;48.736;9.092;2023-08-20T14:39:32;31.30;88.40
8914;DHT22;4492;48.736;9.092;2023-08-20T14:41:59;31.30;88.70
8914;DHT22;4492;48.736;9.092;2023-08-20T14:44:24;31.20;88.00
8914;DHT22;4492;48.736;9.092;2023-08-20T14:46:50;31.00;88.00
8914;DHT22;4492;48.736;9.092;2023-08-20T14:49:16;30.90;87.80
8914;DHT22;4492;48.736;9.092;2023-08-20T14:51:43;30.80;88.50
8914;DHT22;4492;48.736;9.092;2023-08-20T14:54:09;30.80;88.80
8914;DHT22;4492;48.736;9.092;2023-08-20T14:56:34;30.90;89.30
8914;DHT22;4492;48.736;9.092;2023-08-20T14:59:00;30.90;89.60
8914;DHT22;4492;48.736;9.092;2023-08-20T15:01:25;30.90;89.20
8914;DHT22;4492;48.736;9.092;2023-08-20T15:03:51;31.00;88.70
8914;DHT22;4492;48.736;9.092;2023-08-20T15:06:16;31.10;88.80
8914;DHT22;4492;48.736;9.092;2023-08-20T15:08:46;31.10;89.00
8914;DHT22;4492;48.736;9.092;2023-08-20T15:11:12;31.30;88.30
8914;DHT22;4492;48.736;9.092;2023-08-20T15:13:37;31.50;87.40
8914;DHT22;4492;48.736;9.092;2023-08-20T15:16:03;31.60;86.80
8914;DHT22;4492;48.736;9.092;2023-08-20T15:18:28;31.60;87.30
8914;DHT22;4492;48.736;9.092;2023-08-20T15:20:55;31.60;87.00
8914;DHT22;4492;48.736;9.092;2023-08-20T15:23:25;31.70;88.20
8914;DHT22;4492;48.736;9.092;2023-08-20T15:25:52;31.80;86.60
8914;DHT22;4492;48.736;9.092;2023-08-20T15:28:21;31.90;86.80
8914;DHT22;4492;48.736;9.092;2023-08-20T15:30:48;32.10;85.00
8914;DHT22;4492;48.736;9.092;2023-08-20T15:33:14;32.20;82.90
8914;DHT22;4492;48.736;9.092;2023-08-20T15:35:39;32.40;81.70
8914;DHT22;4492;48.736;9.092;2023-08-20T15:38:05;32.30;80.40
8914;DHT22;4492;48.736;9.092;2023-08-20T15:40:31;32.30;82.20
8914;DHT22;4492;48.736;9.092;2023-08-20T15:42:56;32.20;82.70
8914;DHT22;4492;48.736;9.092;2023-08-20T15:45:22;32.20;82.60
8914;DHT22;4492;48.736;9.092;2023-08-20T15:47:47;32.30;82.50
8914;DHT22;4492;48.736;9.092;2023-08-20T15:50:13;32.40;82.20
8914;DHT22;4492;48.736;9.092;2023-08-20T15:52:39;32.50;81.80
8914;DHT22;4492;48.736;9.092;2023-08-20T15:55:05;32.80;80.70
8914;DHT22;4492;48.736;9.092;2023-08-20T15:57:30;32.90;80.40
8914;DHT22;4492;48.736;9.092;2023-08-20T15:59:56;33.00;79.60
8914;DHT22;4492;48.736;9.092;2023-08-20T16:02:21;32.90;80.00
8914;DHT22;4492;48.736;9.092;2023-08-20T16:04:47;33.00;79.20
8914;DHT22;4492;48.736;9.092;2023-08-20T16:07:13;33.00;80.00
8914;DHT22;4492;48.736;9.092;2023-08-20T16:09:38;32.90;80.10